Terminal Aerodrome Forecast
Issued by NWS

Home | Current Version | Previous Version | Graphics & Text | Print | Product List | Glossary On
Versions: 1 2 3 4 5 6 7 8 9 10 11 12 13 14 15 16 17 18 19 20 21 22 23 24 25 26 27 28 29 30 31 32 33 34 35 36
000
FTUS43 KLOT 231942 AAA
TAFORD
TAF AMD
KORD 231942Z 2320/2424 20010KT P6SM FEW070 SCT200
     FM240200 15007KT P6SM SCT100 BKN150
     FM240600 17006KT P6SM BKN090
     FM241200 16008KT P6SM VCSH SCT040 BKN080
     FM241500 16010KT P6SM BKN060
     FM242000 15013KT P6SM -SHRA BKN035 OVC050=

USA.gov is the U.S. government's official web portal to all federal, state and local government web resources and services.